Terminal Aerodrome Forecast
Issued by NWS

Home | Current Version | Previous Version | Text Only | Print | Product List | Glossary On
Versions: 1 2 3 4 5 6 7 8 9 10 11 12 13
672
FTUS42 KTAE 031140
TAFVLD
TAF
KVLD 031140Z 0312/0412 05004KT P6SM BKN200
     FM031800 08005KT P6SM SCT100 BKN200
     FM040000 08007KT P6SM FEW050 BKN100=

USA.gov is the U.S. government's official web portal to all federal, state and local government web resources and services.